sensor_id;sensor_type;location;lat;lon;timestamp;temperature;humidity
19017;DHT22;9641;51.494;6.670;2024-03-17T00:00:05;4.70;99.90
19017;DHT22;9641;51.494;6.670;2024-03-17T00:02:35;4.60;99.90
19017;DHT22;9641;51.494;6.670;2024-03-17T00:05:03;4.60;99.90
19017;DHT22;9641;51.494;6.670;2024-03-17T00:07:32;4.60;99.90
19017;DHT22;9641;51.494;6.670;2024-03-17T00:09:58;4.60;99.90
19017;DHT22;9641;51.494;6.670;2024-03-17T00:12:25;4.50;99.90
19017;DHT22;9641;51.494;6.670;2024-03-17T00:14:51;4.50;99.90
19017;DHT22;9641;51.494;6.670;2024-03-17T00:17:18;4.50;99.90
19017;DHT22;9641;51.494;6.670;2024-03-17T00:19:46;4.50;99.90
19017;DHT22;9641;51.494;6.670;2024-03-17T00:22:13;4.60;99.90
19017;DHT22;9641;51.494;6.670;2024-03-17T00:24:42;4.60;99.90
19017;DHT22;9641;51.494;6.670;2024-03-17T00:27:10;4.50;99.90
19017;DHT22;9641;51.494;6.670;2024-03-17T00:29:36;4.50;99.90
19017;DHT22;9641;51.494;6.670;2024-03-17T00:32:04;4.60;99.90
19017;DHT22;9641;51.494;6.670;2024-03-17T00:34:30;4.50;99.90
19017;DHT22;9641;51.494;6.670;2024-03-17T00:36:57;4.60;99.90
19017;DHT22;9641;51.494;6.670;2024-03-17T00:39:24;4.60;99.90
19017;DHT22;9641;51.494;6.670;2024-03-17T00:41:54;4.60;99.90
19017;DHT22;9641;51.494;6.670;2024-03-17T00:44:19;4.70;99.90
19017;DHT22;9641;51.494;6.670;2024-03-17T00:46:47;4.90;99.90
19017;DHT22;9641;51.494;6.670;2024-03-17T00:49:13;4.80;99.90
19017;DHT22;9641;51.494;6.670;2024-03-17T00:51:40;4.80;99.90
19017;DHT22;9641;51.494;6.670;2024-03-17T00:54:06;4.80;99.90
19017;DHT22;9641;51.494;6.670;2024-03-17T00:56:33;4.80;99.90
19017;DHT22;9641;51.494;6.670;2024-03-17T00:59:01;4.70;99.90
19017;DHT22;9641;51.494;6.670;2024-03-17T01:01:27;4.70;99.90
19017;DHT22;9641;51.494;6.670;2024-03-17T01:03:54;4.70;99.90
19017;DHT22;9641;51.494;6.670;2024-03-17T01:06:20;4.60;99.90
19017;DHT22;9641;51.494;6.670;2024-03-17T01:08:48;4.60;99.90
19017;DHT22;9641;51.494;6.670;2024-03-17T01:11:15;4.70;99.90
19017;DHT22;9641;51.494;6.670;2024-03-17T01:13:44;4.70;99.90
19017;DHT22;9641;51.494;6.670;2024-03-17T01:16:12;4.70;99.90
19017;DHT22;9641;51.494;6.670;2024-03-17T01:18:38;4.70;99.90
19017;DHT22;9641;51.494;6.670;2024-03-17T01:21:05;4.80;99.90
19017;DHT22;9641;51.494;6.670;2024-03-17T01:23:32;4.80;99.90
19017;DHT22;9641;51.494;6.670;2024-03-17T01:25:58;4.80;99.90
19017;DHT22;9641;51.494;6.670;2024-03-17T01:28:25;4.80;99.90
19017;DHT22;9641;51.494;6.670;2024-03-17T01:30:52;4.90;99.90
19017;DHT22;9641;51.494;6.670;2024-03-17T01:33:20;4.80;99.90
19017;DHT22;9641;51.494;6.670;2024-03-17T01:35:47;4.80;99.90
19017;DHT22;9641;51.494;6.670;2024-03-17T01:38:12;4.80;99.90
19017;DHT22;9641;51.494;6.670;2024-03-17T01:40:39;4.90;99.90
19017;DHT22;9641;51.494;6.670;2024-03-17T01:43:09;4.90;99.90
19017;DHT22;9641;51.494;6.670;2024-03-17T01:45:36;4.80;99.90
19017;DHT22;9641;51.494;6.670;2024-03-17T01:48:03;4.80;99.90
19017;DHT22;9641;51.494;6.670;2024-03-17T01:50:35;4.70;99.90
19017;DHT22;9641;51.494;6.670;2024-03-17T01:53:02;4.70;99.90
19017;DHT22;9641;51.494;6.670;2024-03-17T01:55:31;4.60;99.90
19017;DHT22;9641;51.494;6.670;2024-03-17T01:57:57;4.50;99.90
19017;DHT22;9641;51.494;6.670;2024-03-17T02:00:24;4.50;99.90
19017;DHT22;9641;51.494;6.670;2024-03-17T02:02:52;4.50;99.90
19017;DHT22;9641;51.494;6.670;2024-03-17T02:05:19;4.60;99.90
19017;DHT22;9641;51.494;6.670;2024-03-17T02:07:46;4.60;99.90
19017;DHT22;9641;51.494;6.670;2024-03-17T02:10:13;4.60;99.90
19017;DHT22;9641;51.494;6.670;2024-03-17T02:12:40;4.60;99.90
19017;DHT22;9641;51.494;6.670;2024-03-17T02:15:10;4.50;99.90
19017;DHT22;9641;51.494;6.670;2024-03-17T02:17:36;4.50;99.90
19017;DHT22;9641;51.494;6.670;2024-03-17T02:20:03;4.40;99.90
19017;DHT22;9641;51.494;6.670;2024-03-17T02:22:34;4.40;99.90
19017;DHT22;9641;51.494;6.670;2024-03-17T02:25:01;4.40;99.90
19017;DHT22;9641;51.494;6.670;2024-03-17T02:27:28;4.40;99.90
19017;DHT22;9641;51.494;6.670;2024-03-17T02:29:54;4.30;99.90
19017;DHT22;9641;51.494;6.670;2024-03-17T02:32:21;4.30;99.90
19017;DHT22;9641;51.494;6.670;2024-03-17T02:34:49;4.20;99.90
19017;DHT22;9641;51.494;6.670;2024-03-17T02:37:14;4.20;99.90
19017;DHT22;9641;51.494;6.670;2024-03-17T02:39:44;4.10;99.90
19017;DHT22;9641;51.494;6.670;2024-03-17T02:42:10;4.10;99.90
19017;DHT22;9641;51.494;6.670;2024-03-17T02:44:38;4.10;99.90
19017;DHT22;9641;51.494;6.670;2024-03-17T02:47:06;4.10;99.90
19017;DHT22;9641;51.494;6.670;2024-03-17T02:49:35;4.10;99.90
19017;DHT22;9641;51.494;6.670;2024-03-17T02:52:06;4.20;99.90
19017;DHT22;9641;51.494;6.670;2024-03-17T02:54:35;4.30;99.90
19017;DHT22;9641;51.494;6.670;2024-03-17T02:57:04;4.30;99.90
19017;DHT22;9641;51.494;6.670;2024-03-17T02:59:32;4.20;99.90
19017;DHT22;9641;51.494;6.670;2024-03-17T03:01:59;4.10;99.90
19017;DHT22;9641;51.494;6.670;2024-03-17T03:04:26;4.20;99.90
19017;DHT22;9641;51.494;6.670;2024-03-17T03:06:53;4.20;99.90
19017;DHT22;9641;51.494;6.670;2024-03-17T03:09:20;4.10;99.90
19017;DHT22;9641;51.494;6.670;2024-03-17T03:11:51;4.10;99.90
19017;DHT22;9641;51.494;6.670;2024-03-17T03:14:19;4.10;99.90
19017;DHT22;9641;51.494;6.670;2024-03-17T03:16:47;4.10;99.90
19017;DHT22;9641;51.494;6.670;2024-03-17T03:19:15;4.20;99.90
19017;DHT22;9641;51.494;6.670;2024-03-17T03:21:41;4.20;99.90
19017;DHT22;9641;51.494;6.670;2024-03-17T03:24:08;4.20;99.90
19017;DHT22;9641;51.494;6.670;2024-03-17T03:26:35;4.10;99.90
19017;DHT22;9641;51.494;6.670;2024-03-17T03:29:02;4.10;99.90
19017;DHT22;9641;51.494;6.670;2024-03-17T03:31:31;4.10;99.90
19017;DHT22;9641;51.494;6.670;2024-03-17T03:33:58;4.00;99.90
19017;DHT22;9641;51.494;6.670;2024-03-17T03:36:27;4.00;99.90
19017;DHT22;9641;51.494;6.670;2024-03-17T03:38:54;4.00;99.90
19017;DHT22;9641;51.494;6.670;2024-03-17T03:41:23;3.90;99.90
19017;DHT22;9641;51.494;6.670;2024-03-17T03:43:50;4.00;99.90
19017;DHT22;9641;51.494;6.670;2024-03-17T03:46:16;4.10;99.90
19017;DHT22;9641;51.494;6.670;2024-03-17T03:48:44;4.10;99.90
19017;DHT22;9641;51.494;6.670;2024-03-17T03:51:11;4.20;99.90
19017;DHT22;9641;51.494;6.670;2024-03-17T03:53:38;4.10;99.90
19017;DHT22;9641;51.494;6.670;2024-03-17T03:56:06;4.20;99.90
19017;DHT22;9641;51.494;6.670;2024-03-17T03:58:33;4.10;99.90
19017;DHT22;9641;51.494;6.670;2024-03-17T04:01:03;4.10;99.90
19017;DHT22;9641;51.494;6.670;2024-03-17T04:03:30;4.10;99.90
19017;DHT22;9641;51.494;6.670;2024-03-17T04:06:05;4.10;99.90
19017;DHT22;9641;51.494;6.670;2024-03-17T04:08:33;4.10;99.90
19017;DHT22;9641;51.494;6.670;2024-03-17T04:11:00;4.30;99.90
19017;DHT22;9641;51.494;6.670;2024-03-17T04:13:27;4.30;99.90
19017;DHT22;9641;51.494;6.670;2024-03-17T04:15:55;4.40;99.90
19017;DHT22;9641;51.494;6.670;2024-03-17T04:18:23;4.40;99.90
19017;DHT22;9641;51.494;6.670;2024-03-17T04:20:50;4.50;99.90
19017;DHT22;9641;51.494;6.670;2024-03-17T04:23:19;4.50;99.90
19017;DHT22;9641;51.494;6.670;2024-03-17T04:25:47;4.50;99.90
19017;DHT22;9641;51.494;6.670;2024-03-17T04:28:16;4.60;99.90
19017;DHT22;9641;51.494;6.670;2024-03-17T04:30:43;4.60;99.90
19017;DHT22;9641;51.494;6.670;2024-03-17T04:33:10;4.70;99.90
19017;DHT22;9641;51.494;6.670;2024-03-17T04:35:38;4.90;99.90
19017;DHT22;9641;51.494;6.670;2024-03-17T04:38:06;4.90;99.90
19017;DHT22;9641;51.494;6.670;2024-03-17T04:40:34;4.90;99.90
19017;DHT22;9641;51.494;6.670;2024-03-17T04:43:01;4.80;99.90
19017;DHT22;9641;51.494;6.670;2024-03-17T04:45:28;4.90;99.90
19017;DHT22;9641;51.494;6.670;2024-03-17T04:47:55;4.90;99.90
19017;DHT22;9641;51.494;6.670;2024-03-17T04:50:22;4.90;99.90
19017;DHT22;9641;51.494;6.670;2024-03-17T04:52:48;4.90;99.90
19017;DHT22;9641;51.494;6.670;2024-03-17T04:55:16;5.00;99.90
19017;DHT22;9641;51.494;6.670;2024-03-17T04:57:45;4.90;99.90
19017;DHT22;9641;51.494;6.670;2024-03-17T05:00:13;4.90;99.90
19017;DHT22;9641;51.494;6.670;2024-03-17T05:02:41;4.90;99.90
19017;DHT22;9641;51.494;6.670;2024-03-17T05:05:08;4.90;99.90
19017;DHT22;9641;51.494;6.670;2024-03-17T05:07:36;4.90;99.90
19017;DHT22;9641;51.494;6.670;2024-03-17T05:10:03;4.90;99.90
19017;DHT22;9641;51.494;6.670;2024-03-17T05:12:31;4.90;99.90
19017;DHT22;9641;51.494;6.670;2024-03-17T05:14:59;4.90;99.90
19017;DHT22;9641;51.494;6.670;2024-03-17T05:17:26;5.00;99.90
19017;DHT22;9641;51.494;6.670;2024-03-17T05:19:52;5.10;99.90
19017;DHT22;9641;51.494;6.670;2024-03-17T05:22:19;5.40;99.90
19017;DHT22;9641;51.494;6.670;2024-03-17T05:24:46;5.50;99.90
19017;DHT22;9641;51.494;6.670;2024-03-17T05:27:14;5.60;99.90
19017;DHT22;9641;51.494;6.670;2024-03-17T05:29:41;5.60;99.90
19017;DHT22;9641;51.494;6.670;2024-03-17T05:32:09;5.60;99.90
19017;DHT22;9641;51.494;6.670;2024-03-17T05:34:37;5.60;99.90
19017;DHT22;9641;51.494;6.670;2024-03-17T05:37:04;5.70;99.90
19017;DHT22;9641;51.494;6.670;2024-03-17T05:39:31;5.70;99.90
19017;DHT22;9641;51.494;6.670;2024-03-17T05:41:58;5.70;99.90
19017;DHT22;9641;51.494;6.670;2024-03-17T05:44:25;5.80;99.90
19017;DHT22;9641;51.494;6.670;2024-03-17T05:46:51;5.80;99.90
19017;DHT22;9641;51.494;6.670;2024-03-17T05:49:20;5.90;99.90
19017;DHT22;9641;51.494;6.670;2024-03-17T05:51:47;5.80;99.90
19017;DHT22;9641;51.494;6.670;2024-03-17T05:54:14;5.90;99.90
19017;DHT22;9641;51.494;6.670;2024-03-17T05:56:41;5.80;99.90
19017;DHT22;9641;51.494;6.670;2024-03-17T05:59:08;6.00;99.90
19017;DHT22;9641;51.494;6.670;2024-03-17T06:01:35;6.00;99.90
19017;DHT22;9641;51.494;6.670;2024-03-17T06:04:02;6.10;99.90
19017;DHT22;9641;51.494;6.670;2024-03-17T06:06:31;6.20;99.90
19017;DHT22;9641;51.494;6.670;2024-03-17T06:08:58;6.30;99.90
19017;DHT22;9641;51.494;6.670;2024-03-17T06:11:25;6.30;99.90
19017;DHT22;9641;51.494;6.670;2024-03-17T06:13:52;6.30;99.90
19017;DHT22;9641;51.494;6.670;2024-03-17T06:16:19;6.30;99.90
19017;DHT22;9641;51.494;6.670;2024-03-17T06:18:46;6.30;99.90
19017;DHT22;9641;51.494;6.670;2024-03-17T06:21:16;6.30;99.90
19017;DHT22;9641;51.494;6.670;2024-03-17T06:23:44;6.40;99.90
19017;DHT22;9641;51.494;6.670;2024-03-17T06:26:12;6.40;99.90
19017;DHT22;9641;51.494;6.670;2024-03-17T06:28:39;6.50;99.90
19017;DHT22;9641;51.494;6.670;2024-03-17T06:31:08;6.60;99.90
19017;DHT22;9641;51.494;6.670;2024-03-17T06:33:36;6.70;99.90
19017;DHT22;9641;51.494;6.670;2024-03-17T06:36:03;6.80;99.90
19017;DHT22;9641;51.494;6.670;2024-03-17T06:38:30;6.90;99.90
19017;DHT22;9641;51.494;6.670;2024-03-17T06:40:58;7.10;99.90
19017;DHT22;9641;51.494;6.670;2024-03-17T06:43:25;7.20;99.90
19017;DHT22;9641;51.494;6.670;2024-03-17T06:45:55;7.30;99.90
19017;DHT22;9641;51.494;6.670;2024-03-17T06:48:22;7.50;99.90
19017;DHT22;9641;51.494;6.670;2024-03-17T06:50:50;7.60;99.90
19017;DHT22;9641;51.494;6.670;2024-03-17T06:53:18;7.70;99.90
19017;DHT22;9641;51.494;6.670;2024-03-17T06:55:52;7.70;99.90
19017;DHT22;9641;51.494;6.670;2024-03-17T06:58:21;7.80;99.90
19017;DHT22;9641;51.494;6.670;2024-03-17T07:00:53;7.80;99.90
19017;DHT22;9641;51.494;6.670;2024-03-17T07:03:20;7.80;99.90
19017;DHT22;9641;51.494;6.670;2024-03-17T07:05:56;7.90;99.90
19017;DHT22;9641;51.494;6.670;2024-03-17T07:08:23;7.90;99.90
19017;DHT22;9641;51.494;6.670;2024-03-17T07:10:58;8.00;99.90
19017;DHT22;9641;51.494;6.670;2024-03-17T07:13:28;8.00;99.90
19017;DHT22;9641;51.494;6.670;2024-03-17T07:15:55;8.00;99.90
19017;DHT22;9641;51.494;6.670;2024-03-17T07:18:25;8.10;99.90
19017;DHT22;9641;51.494;6.670;2024-03-17T07:20:52;8.20;99.90
19017;DHT22;9641;51.494;6.670;2024-03-17T07:23:18;8.20;99.90
19017;DHT22;9641;51.494;6.670;2024-03-17T07:25:52;8.20;99.90
19017;DHT22;9641;51.494;6.670;2024-03-17T07:28:19;8.20;99.90
19017;DHT22;9641;51.494;6.670;2024-03-17T07:30:48;8.20;99.90
19017;DHT22;9641;51.494;6.670;2024-03-17T07:33:15;8.20;99.90
19017;DHT22;9641;51.494;6.670;2024-03-17T07:35:50;8.30;99.90
19017;DHT22;9641;51.494;6.670;2024-03-17T07:38:17;8.40;99.90
19017;DHT22;9641;51.494;6.670;2024-03-17T07:40:54;8.60;99.90
19017;DHT22;9641;51.494;6.670;2024-03-17T07:43:21;8.60;99.90
19017;DHT22;9641;51.494;6.670;2024-03-17T07:45:58;8.70;99.90
19017;DHT22;9641;51.494;6.670;2024-03-17T07:48:25;8.80;99.90
19017;DHT22;9641;51.494;6.670;2024-03-17T07:50:56;8.80;99.90
19017;DHT22;9641;51.494;6.670;2024-03-17T07:53:23;8.90;99.90
19017;DHT22;9641;51.494;6.670;2024-03-17T07:55:59;8.80;99.90
19017;DHT22;9641;51.494;6.670;2024-03-17T07:58:27;8.80;99.90
19017;DHT22;9641;51.494;6.670;2024-03-17T08:00:58;8.80;99.90
19017;DHT22;9641;51.494;6.670;2024-03-17T08:03:26;8.90;99.90
19017;DHT22;9641;51.494;6.670;2024-03-17T08:05:54;8.90;99.90
19017;DHT22;9641;51.494;6.670;2024-03-17T08:08:21;9.00;99.90
19017;DHT22;9641;51.494;6.670;2024-03-17T08:10:48;9.20;99.90
19017;DHT22;9641;51.494;6.670;2024-03-17T08:13:15;9.40;51.30
19017;DHT22;9641;51.494;6.670;2024-03-17T08:15:43;9.50;1.00
19017;DHT22;9641;51.494;6.670;2024-03-17T08:18:12;9.60;20.70
19017;DHT22;9641;51.494;6.670;2024-03-17T08:20:39;9.80;1.00
19017;DHT22;9641;51.494;6.670;2024-03-17T08:23:08;9.90;1.00
19017;DHT22;9641;51.494;6.670;2024-03-17T08:25:36;10.00;1.00
19017;DHT22;9641;51.494;6.670;2024-03-17T08:28:04;10.00;1.00
19017;DHT22;9641;51.494;6.670;2024-03-17T08:30:33;10.10;1.00
19017;DHT22;9641;51.494;6.670;2024-03-17T08:33:00;10.20;1.00
19017;DHT22;9641;51.494;6.670;2024-03-17T08:35:29;10.20;1.00
19017;DHT22;9641;51.494;6.670;2024-03-17T08:37:55;10.40;99.90
19017;DHT22;9641;51.494;6.670;2024-03-17T08:40:24;10.60;1.00
19017;DHT22;9641;51.494;6.670;2024-03-17T08:42:51;10.50;99.90
19017;DHT22;9641;51.494;6.670;2024-03-17T08:45:18;10.50;99.90
19017;DHT22;9641;51.494;6.670;2024-03-17T08:47:44;10.50;5.80
19017;DHT22;9641;51.494;6.670;2024-03-17T08:50:11;10.60;1.00
19017;DHT22;9641;51.494;6.670;2024-03-17T08:52:40;10.50;99.90
19017;DHT22;9641;51.494;6.670;2024-03-17T08:55:08;10.50;1.00
19017;DHT22;9641;51.494;6.670;2024-03-17T08:57:39;10.60;1.00
19017;DHT22;9641;51.494;6.670;2024-03-17T09:00:07;10.80;1.00
19017;DHT22;9641;51.494;6.670;2024-03-17T09:02:34;11.00;99.90
19017;DHT22;9641;51.494;6.670;2024-03-17T09:05:02;11.10;99.90
19017;DHT22;9641;51.494;6.670;2024-03-17T09:07:31;11.20;99.90
19017;DHT22;9641;51.494;6.670;2024-03-17T09:10:03;11.40;1.00
19017;DHT22;9641;51.494;6.670;2024-03-17T09:12:31;11.40;99.90
19017;DHT22;9641;51.494;6.670;2024-03-17T09:14:58;11.40;1.00
19017;DHT22;9641;51.494;6.670;2024-03-17T09:17:26;11.40;99.90
19017;DHT22;9641;51.494;6.670;2024-03-17T09:19:54;11.50;99.90
19017;DHT22;9641;51.494;6.670;2024-03-17T09:22:21;11.60;1.00
19017;DHT22;9641;51.494;6.670;2024-03-17T09:24:48;11.80;99.90
19017;DHT22;9641;51.494;6.670;2024-03-17T09:27:16;12.00;1.00
19017;DHT22;9641;51.494;6.670;2024-03-17T09:29:46;12.10;1.00
19017;DHT22;9641;51.494;6.670;2024-03-17T09:32:13;12.20;1.00
19017;DHT22;9641;51.494;6.670;2024-03-17T09:34:46;12.30;99.90
19017;DHT22;9641;51.494;6.670;2024-03-17T09:37:14;12.30;99.90
19017;DHT22;9641;51.494;6.670;2024-03-17T09:39:41;12.50;99.90
19017;DHT22;9641;51.494;6.670;2024-03-17T09:42:17;12.60;99.90
19017;DHT22;9641;51.494;6.670;2024-03-17T09:44:45;12.70;99.90
19017;DHT22;9641;51.494;6.670;2024-03-17T09:47:18;12.60;28.60
19017;DHT22;9641;51.494;6.670;2024-03-17T09:49:57;12.60;14.10
19017;DHT22;9641;51.494;6.670;2024-03-17T09:52:37;12.60;1.00
19017;DHT22;9641;51.494;6.670;2024-03-17T09:55:09;12.80;1.00
19017;DHT22;9641;51.494;6.670;2024-03-17T09:57:41;12.80;1.00
19017;DHT22;9641;51.494;6.670;2024-03-17T10:00:10;12.80;1.00
19017;DHT22;9641;51.494;6.670;2024-03-17T10:02:42;12.90;1.00
19017;DHT22;9641;51.494;6.670;2024-03-17T10:05:18;13.00;1.00
19017;DHT22;9641;51.494;6.670;2024-03-17T10:07:46;13.00;1.00
19017;DHT22;9641;51.494;6.670;2024-03-17T10:10:14;13.10;1.00
19017;DHT22;9641;51.494;6.670;2024-03-17T10:12:44;13.40;1.00
19017;DHT22;9641;51.494;6.670;2024-03-17T10:15:14;13.50;1.00
19017;DHT22;9641;51.494;6.670;2024-03-17T10:17:44;13.80;1.00
19017;DHT22;9641;51.494;6.670;2024-03-17T10:20:12;14.00;1.00
19017;DHT22;9641;51.494;6.670;2024-03-17T10:23:01;14.10;1.00
19017;DHT22;9641;51.494;6.670;2024-03-17T10:25:38;14.30;99.90
19017;DHT22;9641;51.494;6.670;2024-03-17T10:28:12;14.20;99.90
19017;DHT22;9641;51.494;6.670;2024-03-17T10:30:40;13.90;99.90
19017;DHT22;9641;51.494;6.670;2024-03-17T10:33:21;13.90;99.90
19017;DHT22;9641;51.494;6.670;2024-03-17T10:35:51;13.80;99.90
19017;DHT22;9641;51.494;6.670;2024-03-17T10:38:24;13.90;99.90
19017;DHT22;9641;51.494;6.670;2024-03-17T10:40:51;14.30;99.90
19017;DHT22;9641;51.494;6.670;2024-03-17T10:43:21;14.60;99.90
19017;DHT22;9641;51.494;6.670;2024-03-17T10:45:55;14.80;99.90
19017;DHT22;9641;51.494;6.670;2024-03-17T10:48:25;14.90;99.90
19017;DHT22;9641;51.494;6.670;2024-03-17T10:50:56;14.90;99.90
19017;DHT22;9641;51.494;6.670;2024-03-17T10:53:25;14.90;99.90
19017;DHT22;9641;51.494;6.670;2024-03-17T10:56:04;14.80;99.90
19017;DHT22;9641;51.494;6.670;2024-03-17T10:58:36;14.80;99.90
19017;DHT22;9641;51.494;6.670;2024-03-17T11:01:11;14.70;99.90
19017;DHT22;9641;51.494;6.670;2024-03-17T11:03:39;14.90;99.90
19017;DHT22;9641;51.494;6.670;2024-03-17T11:06:06;15.10;99.90
19017;DHT22;9641;51.494;6.670;2024-03-17T11:08:35;15.30;99.90
19017;DHT22;9641;51.494;6.670;2024-03-17T11:11:04;15.40;99.90
19017;DHT22;9641;51.494;6.670;2024-03-17T11:13:32;15.50;95.40
19017;DHT22;9641;51.494;6.670;2024-03-17T11:16:00;15.60;35.20
19017;DHT22;9641;51.494;6.670;2024-03-17T11:18:35;15.90;24.70
19017;DHT22;9641;51.494;6.670;2024-03-17T11:21:03;16.10;1.00
19017;DHT22;9641;51.494;6.670;2024-03-17T11:23:37;16.50;1.00
19017;DHT22;9641;51.494;6.670;2024-03-17T11:26:05;16.60;1.00
19017;DHT22;9641;51.494;6.670;2024-03-17T11:28:51;17.00;1.00
19017;DHT22;9641;51.494;6.670;2024-03-17T11:31:40;17.40;1.00
19017;DHT22;9641;51.494;6.670;2024-03-17T11:34:32;17.60;1.00
19017;DHT22;9641;51.494;6.670;2024-03-17T11:37:01;17.70;1.00
19017;DHT22;9641;51.494;6.670;2024-03-17T11:39:49;17.70;1.00
19017;DHT22;9641;51.494;6.670;2024-03-17T11:42:16;17.50;1.00
19017;DHT22;9641;51.494;6.670;2024-03-17T11:44:56;17.20;1.00
19017;DHT22;9641;51.494;6.670;2024-03-17T11:47:23;17.20;1.00
19017;DHT22;9641;51.494;6.670;2024-03-17T11:50:06;17.40;1.00
19017;DHT22;9641;51.494;6.670;2024-03-17T11:52:34;17.20;1.00
19017;DHT22;9641;51.494;6.670;2024-03-17T11:55:01;17.20;1.00
19017;DHT22;9641;51.494;6.670;2024-03-17T11:57:28;17.00;1.00
19017;DHT22;9641;51.494;6.670;2024-03-17T11:59:56;17.20;1.00
19017;DHT22;9641;51.494;6.670;2024-03-17T12:02:26;17.50;1.00
19017;DHT22;9641;51.494;6.670;2024-03-17T12:04:54;17.80;1.00
19017;DHT22;9641;51.494;6.670;2024-03-17T12:07:21;17.90;1.00
19017;DHT22;9641;51.494;6.670;2024-03-17T12:09:50;17.90;1.00
19017;DHT22;9641;51.494;6.670;2024-03-17T12:12:18;17.80;1.00
19017;DHT22;9641;51.494;6.670;2024-03-17T12:14:45;17.40;1.00
19017;DHT22;9641;51.494;6.670;2024-03-17T12:17:15;17.50;1.00
19017;DHT22;9641;51.494;6.670;2024-03-17T12:19:44;17.70;1.00
19017;DHT22;9641;51.494;6.670;2024-03-17T12:22:17;17.70;1.00
19017;DHT22;9641;51.494;6.670;2024-03-17T12:24:45;17.90;1.00
19017;DHT22;9641;51.494;6.670;2024-03-17T12:27:17;18.10;1.00
19017;DHT22;9641;51.494;6.670;2024-03-17T12:29:43;18.40;1.00
19017;DHT22;9641;51.494;6.670;2024-03-17T12:32:14;18.40;1.00
19017;DHT22;9641;51.494;6.670;2024-03-17T12:34:42;19.00;1.00
19017;DHT22;9641;51.494;6.670;2024-03-17T12:37:15;19.90;1.00
19017;DHT22;9641;51.494;6.670;2024-03-17T12:39:42;20.40;1.00
19017;DHT22;9641;51.494;6.670;2024-03-17T12:42:10;21.30;1.00
19017;DHT22;9641;51.494;6.670;2024-03-17T12:44:39;22.20;1.00
19017;DHT22;9641;51.494;6.670;2024-03-17T12:47:09;22.10;99.90
19017;DHT22;9641;51.494;6.670;2024-03-17T12:49:46;21.70;99.90
19017;DHT22;9641;51.494;6.670;2024-03-17T12:52:19;20.90;99.90
19017;DHT22;9641;51.494;6.670;2024-03-17T12:54:56;19.60;99.90
19017;DHT22;9641;51.494;6.670;2024-03-17T12:57:45;19.30;99.90
19017;DHT22;9641;51.494;6.670;2024-03-17T13:00:30;19.00;99.90
19017;DHT22;9641;51.494;6.670;2024-03-17T13:03:01;19.20;99.90
19017;DHT22;9641;51.494;6.670;2024-03-17T13:05:30;19.00;99.90
19017;DHT22;9641;51.494;6.670;2024-03-17T13:07:57;18.50;99.90
19017;DHT22;9641;51.494;6.670;2024-03-17T13:10:25;18.50;1.00
19017;DHT22;9641;51.494;6.670;2024-03-17T13:13:00;18.60;1.00
19017;DHT22;9641;51.494;6.670;2024-03-17T13:15:27;18.70;1.00
19017;DHT22;9641;51.494;6.670;2024-03-17T13:17:56;18.10;99.90
19017;DHT22;9641;51.494;6.670;2024-03-17T13:20:24;17.80;1.00
19017;DHT22;9641;51.494;6.670;2024-03-17T13:22:53;17.70;1.00
19017;DHT22;9641;51.494;6.670;2024-03-17T13:25:21;17.60;1.00
19017;DHT22;9641;51.494;6.670;2024-03-17T13:27:50;17.50;1.00
19017;DHT22;9641;51.494;6.670;2024-03-17T13:30:19;17.30;1.00
19017;DHT22;9641;51.494;6.670;2024-03-17T13:32:48;16.90;1.00
19017;DHT22;9641;51.494;6.670;2024-03-17T13:35:24;16.70;1.00
19017;DHT22;9641;51.494;6.670;2024-03-17T13:37:53;16.70;1.00
19017;DHT22;9641;51.494;6.670;2024-03-17T13:40:22;16.70;1.00
19017;DHT22;9641;51.494;6.670;2024-03-17T13:42:50;16.40;1.00
19017;DHT22;9641;51.494;6.670;2024-03-17T13:45:18;16.30;1.00
19017;DHT22;9641;51.494;6.670;2024-03-17T13:47:48;16.00;1.00
19017;DHT22;9641;51.494;6.670;2024-03-17T13:50:16;16.10;1.00
19017;DHT22;9641;51.494;6.670;2024-03-17T13:52:43;16.20;1.00
19017;DHT22;9641;51.494;6.670;2024-03-17T13:55:16;16.10;1.00
19017;DHT22;9641;51.494;6.670;2024-03-17T13:57:44;16.10;1.00
19017;DHT22;9641;51.494;6.670;2024-03-17T14:00:14;16.20;1.00
19017;DHT22;9641;51.494;6.670;2024-03-17T14:02:42;16.20;1.00
19017;DHT22;9641;51.494;6.670;2024-03-17T14:05:12;16.20;1.00
19017;DHT22;9641;51.494;6.670;2024-03-17T14:07:39;16.20;1.00
19017;DHT22;9641;51.494;6.670;2024-03-17T14:10:07;16.20;1.00
19017;DHT22;9641;51.494;6.670;2024-03-17T14:12:36;16.10;1.00
19017;DHT22;9641;51.494;6.670;2024-03-17T14:15:05;16.10;1.00
19017;DHT22;9641;51.494;6.670;2024-03-17T14:17:32;16.00;1.00
19017;DHT22;9641;51.494;6.670;2024-03-17T14:19:59;16.00;1.00
19017;DHT22;9641;51.494;6.670;2024-03-17T14:22:26;16.00;1.00
19017;DHT22;9641;51.494;6.670;2024-03-17T14:24:53;16.10;1.00
19017;DHT22;9641;51.494;6.670;2024-03-17T14:27:21;16.10;1.00
19017;DHT22;9641;51.494;6.670;2024-03-17T14:29:50;16.00;1.00
19017;DHT22;9641;51.494;6.670;2024-03-17T14:32:18;16.00;1.00
19017;DHT22;9641;51.494;6.670;2024-03-17T14:34:46;16.00;1.00
19017;DHT22;9641;51.494;6.670;2024-03-17T14:37:13;16.00;1.00
19017;DHT22;9641;51.494;6.670;2024-03-17T14:39:40;15.90;6.80
19017;DHT22;9641;51.494;6.670;2024-03-17T14:42:07;15.90;1.00
19017;DHT22;9641;51.494;6.670;2024-03-17T14:44:35;16.00;1.00
19017;DHT22;9641;51.494;6.670;2024-03-17T14:47:04;16.00;85.00
19017;DHT22;9641;51.494;6.670;2024-03-17T14:49:33;16.00;1.00
19017;DHT22;9641;51.494;6.670;2024-03-17T14:52:00;16.20;1.00
19017;DHT22;9641;51.494;6.670;2024-03-17T14:54:28;16.30;1.00
19017;DHT22;9641;51.494;6.670;2024-03-17T14:56:56;16.20;1.00
19017;DHT22;9641;51.494;6.670;2024-03-17T14:59:23;16.20;1.00
19017;DHT22;9641;51.494;6.670;2024-03-17T15:01:50;16.50;1.00
19017;DHT22;9641;51.494;6.670;2024-03-17T15:04:21;16.60;1.00
19017;DHT22;9641;51.494;6.670;2024-03-17T15:06:52;16.80;1.00
19017;DHT22;9641;51.494;6.670;2024-03-17T15:09:20;17.00;1.00
19017;DHT22;9641;51.494;6.670;2024-03-17T15:11:47;17.20;1.00
19017;DHT22;9641;51.494;6.670;2024-03-17T15:14:14;17.30;1.00
19017;DHT22;9641;51.494;6.670;2024-03-17T15:16:41;17.50;1.00
19017;DHT22;9641;51.494;6.670;2024-03-17T15:19:08;17.80;1.00
19017;DHT22;9641;51.494;6.670;2024-03-17T15:21:36;18.00;1.00
19017;DHT22;9641;51.494;6.670;2024-03-17T15:24:05;18.10;1.00
19017;DHT22;9641;51.494;6.670;2024-03-17T15:26:32;18.10;1.00
19017;DHT22;9641;51.494;6.670;2024-03-17T15:28:59;18.00;1.00
19017;DHT22;9641;51.494;6.670;2024-03-17T15:31:29;17.70;1.00
19017;DHT22;9641;51.494;6.670;2024-03-17T15:33:56;17.50;1.00
19017;DHT22;9641;51.494;6.670;2024-03-17T15:36:24;17.50;1.00
19017;DHT22;9641;51.494;6.670;2024-03-17T15:38:52;17.50;1.00
19017;DHT22;9641;51.494;6.670;2024-03-17T15:41:19;17.30;1.00
19017;DHT22;9641;51.494;6.670;2024-03-17T15:43:46;17.10;1.00
19017;DHT22;9641;51.494;6.670;2024-03-17T15:46:15;17.20;1.00
19017;DHT22;9641;51.494;6.670;2024-03-17T15:48:44;17.30;1.00
19017;DHT22;9641;51.494;6.670;2024-03-17T15:51:11;17.30;1.00
19017;DHT22;9641;51.494;6.670;2024-03-17T15:53:38;17.40;1.00
19017;DHT22;9641;51.494;6.670;2024-03-17T15:56:06;17.40;1.00
19017;DHT22;9641;51.494;6.670;2024-03-17T15:58:34;17.60;1.00
19017;DHT22;9641;51.494;6.670;2024-03-17T16:01:05;17.80;1.00
19017;DHT22;9641;51.494;6.670;2024-03-17T16:03:35;18.30;1.00
19017;DHT22;9641;51.494;6.670;2024-03-17T16:06:07;18.80;1.00
19017;DHT22;9641;51.494;6.670;2024-03-17T16:08:38;19.10;1.00